createdAt,value
2023-05-11T00:00:39.709Z,17.67
2023-05-11T00:03:06.698Z,17.66
2023-05-11T00:05:33.393Z,17.65
2023-05-11T00:08:00.052Z,17.61
2023-05-11T00:10:28.280Z,17.60
2023-05-11T00:12:54.835Z,17.56
2023-05-11T00:15:21.376Z,17.55
2023-05-11T00:17:47.954Z,17.54
2023-05-11T00:23:02.642Z,17.51
2023-05-11T00:25:29.030Z,17.50
2023-05-11T00:27:55.404Z,17.48
2023-05-11T00:30:22.010Z,17.48
2023-05-11T00:32:51.419Z,17.45
2023-05-11T00:35:18.052Z,17.43
2023-05-11T00:37:44.915Z,17.42
2023-05-11T00:40:11.571Z,17.41
2023-05-11T00:42:38.071Z,17.40
2023-05-11T00:45:05.105Z,17.38
2023-05-11T00:47:31.944Z,17.36
2023-05-11T00:49:58.668Z,17.35
2023-05-11T00:52:25.167Z,17.34
2023-05-11T00:54:51.669Z,17.32
2023-05-11T00:57:18.279Z,17.31
2023-05-11T00:59:44.765Z,17.31
2023-05-11T01:02:11.426Z,17.29
2023-05-11T01:04:38.832Z,17.28
2023-05-11T01:07:20.728Z,17.25
2023-05-11T01:09:50.078Z,17.29
2023-05-11T01:12:24.572Z,17.26
2023-05-11T01:14:57.951Z,17.26
2023-05-11T01:17:34.378Z,17.26
2023-05-11T01:20:06.279Z,17.26
2023-05-11T01:23:00.006Z,17.22
2023-05-11T01:25:44.934Z,17.23
2023-05-11T01:28:35.723Z,17.22
2023-05-11T01:31:10.933Z,17.22
2023-05-11T01:33:44.438Z,17.22
2023-05-11T01:36:13.234Z,17.21
2023-05-11T01:38:44.189Z,17.19
2023-05-11T01:41:17.611Z,17.16
2023-05-11T01:43:54.278Z,17.14
2023-05-11T01:46:25.101Z,17.17
2023-05-11T01:48:54.761Z,17.16
2023-05-11T01:51:22.505Z,17.16
2023-05-11T01:53:50.100Z,17.15
2023-05-11T01:56:18.281Z,17.15
2023-05-11T01:58:46.323Z,17.15
2023-05-11T02:01:15.316Z,17.13
2023-05-11T02:03:44.167Z,17.11
2023-05-11T02:06:13.587Z,17.11
2023-05-11T02:08:41.325Z,17.10
2023-05-11T02:11:10.420Z,17.08
2023-05-11T02:13:41.891Z,17.08
2023-05-11T02:16:10.147Z,17.08
2023-05-11T02:18:40.853Z,17.07
2023-05-11T02:21:09.875Z,17.06
2023-05-11T02:23:37.492Z,17.06
2023-05-11T02:26:05.944Z,17.05
2023-05-11T02:28:32.434Z,17.02
2023-05-11T02:31:05.423Z,16.99
2023-05-11T02:33:34.231Z,16.98
2023-05-11T02:36:02.693Z,17.01
2023-05-11T02:38:34.478Z,16.96
2023-05-11T02:41:07.320Z,16.93
2023-05-11T02:43:37.236Z,16.91
2023-05-11T02:46:06.969Z,16.89
2023-05-11T02:48:39.837Z,16.86
2023-05-11T02:51:10.103Z,16.87
2023-05-11T02:53:40.042Z,16.88
2023-05-11T02:56:07.815Z,16.88
2023-05-11T02:58:35.173Z,16.88
2023-05-11T03:01:02.664Z,16.87
2023-05-11T03:03:29.302Z,16.85
2023-05-11T03:05:55.892Z,16.84
2023-05-11T03:08:22.379Z,16.84
2023-05-11T03:10:48.980Z,16.83
2023-05-11T03:13:16.686Z,16.83
2023-05-11T03:15:44.009Z,16.82
2023-05-11T03:18:13.141Z,16.80
2023-05-11T03:20:43.399Z,16.78
2023-05-11T03:23:12.650Z,16.78
2023-05-11T03:25:42.966Z,16.77
2023-05-11T03:28:11.043Z,16.77
2023-05-11T03:30:38.649Z,16.76
2023-05-11T03:33:05.500Z,16.74
2023-05-11T03:35:34.893Z,16.72
2023-05-11T03:38:02.171Z,16.71
2023-05-11T03:40:33.422Z,16.68
2023-05-11T03:43:03.188Z,16.66
2023-05-11T03:45:31.696Z,16.65
2023-05-11T03:48:00.459Z,16.64
2023-05-11T03:50:28.042Z,16.65
2023-05-11T03:52:56.039Z,16.64
2023-05-11T03:55:23.021Z,16.66
2023-05-11T03:57:49.886Z,16.66
2023-05-11T04:00:16.956Z,16.69
2023-05-11T04:02:43.886Z,16.71
2023-05-11T04:05:11.682Z,16.74
2023-05-11T04:07:39.109Z,16.78
2023-05-11T04:10:06.407Z,16.79
2023-05-11T04:12:32.860Z,16.83
2023-05-11T04:14:59.342Z,16.85
2023-05-11T04:17:25.784Z,16.87
2023-05-11T04:19:52.369Z,16.89
2023-05-11T04:22:18.812Z,16.90
2023-05-11T04:24:45.461Z,16.92
2023-05-11T04:27:11.903Z,16.94
2023-05-11T04:29:38.295Z,16.97
2023-05-11T04:32:04.975Z,16.98
2023-05-11T04:34:31.451Z,16.99
2023-05-11T04:36:58.060Z,17.02
2023-05-11T04:39:24.497Z,17.02
2023-05-11T04:41:50.918Z,17.04
2023-05-11T04:44:17.437Z,17.04
2023-05-11T04:46:44.019Z,17.04
2023-05-11T04:49:10.516Z,17.05
2023-05-11T04:51:36.973Z,17.05
2023-05-11T04:54:03.534Z,17.08
2023-05-11T04:56:30.064Z,17.08
2023-05-11T04:58:56.477Z,17.09
2023-05-11T05:01:22.990Z,17.09
2023-05-11T05:03:49.894Z,17.09
2023-05-11T05:06:16.504Z,17.09
2023-05-11T05:08:43.031Z,17.11
2023-05-11T05:11:10.914Z,17.11
2023-05-11T05:13:37.532Z,17.10
2023-05-11T05:16:04.192Z,17.11
2023-05-11T05:18:30.865Z,17.11
2023-05-11T05:20:57.416Z,17.12
2023-05-11T05:23:23.917Z,17.12
2023-05-11T05:25:50.444Z,17.11
2023-05-11T05:28:16.937Z,17.10
2023-05-11T05:30:43.516Z,17.09
2023-05-11T05:33:09.923Z,17.08
2023-05-11T05:35:36.491Z,17.07
2023-05-11T05:38:03.069Z,17.06
2023-05-11T05:40:30.038Z,17.04
2023-05-11T05:42:56.594Z,17.02
2023-05-11T05:45:23.011Z,17.00
2023-05-11T05:47:49.680Z,16.97
2023-05-11T05:50:16.364Z,16.93
2023-05-11T05:52:43.041Z,16.89
2023-05-11T05:55:09.667Z,16.85
2023-05-11T05:57:36.189Z,16.80
2023-05-11T06:00:03.036Z,16.75
2023-05-11T06:02:29.548Z,16.72
2023-05-11T06:04:56.345Z,16.69
2023-05-11T06:07:22.853Z,16.66
2023-05-11T06:09:49.398Z,16.65
2023-05-11T06:12:16.123Z,16.63
2023-05-11T06:14:42.637Z,16.61
2023-05-11T06:17:09.154Z,16.61
2023-05-11T06:19:35.616Z,16.59
2023-05-11T06:22:03.143Z,16.58
2023-05-11T06:24:29.924Z,16.57
2023-05-11T06:26:56.381Z,16.56
2023-05-11T06:29:22.974Z,16.55
2023-05-11T06:31:52.688Z,16.53
2023-05-11T06:34:20.456Z,16.50
2023-05-11T06:36:48.014Z,16.47
2023-05-11T06:39:14.767Z,16.45
2023-05-11T06:41:41.153Z,16.41
2023-05-11T06:44:08.356Z,16.39
2023-05-11T06:46:34.816Z,16.36
2023-05-11T06:49:01.819Z,16.33
2023-05-11T06:51:28.221Z,16.32
2023-05-11T06:53:54.649Z,16.30
2023-05-11T06:56:21.768Z,16.28
2023-05-11T06:58:48.358Z,16.28
2023-05-11T07:01:14.822Z,16.26
2023-05-11T07:03:41.468Z,16.26
2023-05-11T07:06:08.074Z,16.25
2023-05-11T07:08:34.486Z,16.26
2023-05-11T07:11:01.070Z,16.28
2023-05-11T07:13:27.493Z,16.30
2023-05-11T07:15:56.640Z,16.33
2023-05-11T07:18:24.027Z,16.36
2023-05-11T07:20:50.512Z,16.41
2023-05-11T07:23:17.123Z,16.47
2023-05-11T07:25:43.666Z,16.53
2023-05-11T07:28:10.127Z,16.59
2023-05-11T07:30:36.620Z,16.64
2023-05-11T07:33:03.345Z,16.68
2023-05-11T07:35:29.894Z,16.73
2023-05-11T07:37:56.267Z,16.75
2023-05-11T07:40:22.850Z,16.79
2023-05-11T07:42:49.237Z,16.83
2023-05-11T07:45:15.724Z,16.86
2023-05-11T07:47:42.527Z,16.90
2023-05-11T07:50:09.225Z,16.92
2023-05-11T07:52:35.704Z,16.95
2023-05-11T07:55:02.196Z,16.99
2023-05-11T07:57:28.610Z,17.01
2023-05-11T07:59:55.016Z,17.03
2023-05-11T08:02:21.583Z,17.06
2023-05-11T08:04:48.147Z,17.10
2023-05-11T08:07:14.603Z,17.13
2023-05-11T08:09:41.078Z,17.14
2023-05-11T08:12:07.775Z,17.16
2023-05-11T08:14:34.262Z,17.19
2023-05-11T08:17:00.871Z,17.24
2023-05-11T08:19:27.355Z,17.28
2023-05-11T08:21:53.737Z,17.31
2023-05-11T08:24:20.222Z,17.36
2023-05-11T08:26:47.122Z,17.39
2023-05-11T08:29:13.660Z,17.41
2023-05-11T08:31:40.372Z,17.44
2023-05-11T08:34:18.626Z,17.45
2023-05-11T08:36:46.654Z,17.51
2023-05-11T08:39:13.145Z,17.55
2023-05-11T08:41:39.530Z,17.61
2023-05-11T08:44:06.329Z,17.65
2023-05-11T08:46:36.093Z,17.69
2023-05-11T08:49:03.023Z,17.76
2023-05-11T08:51:29.541Z,17.81
2023-05-11T08:53:57.670Z,17.83
2023-05-11T08:56:26.494Z,17.86
2023-05-11T08:58:56.175Z,17.89
2023-05-11T09:01:23.549Z,17.91
2023-05-11T09:03:50.833Z,17.93
2023-05-11T09:06:18.542Z,17.95
2023-05-11T09:08:45.981Z,17.98
2023-05-11T09:11:12.751Z,18.00
2023-05-11T09:13:39.449Z,18.03
2023-05-11T09:16:13.845Z,18.05
2023-05-11T09:18:51.522Z,18.06
2023-05-11T09:21:18.815Z,18.06
2023-05-11T09:23:45.762Z,18.05
2023-05-11T09:26:29.734Z,18.01
2023-05-11T09:29:03.861Z,18.05
2023-05-11T09:31:40.917Z,17.97
2023-05-11T09:34:22.077Z,17.94
2023-05-11T09:36:50.898Z,17.96
2023-05-11T09:39:35.208Z,17.96
2023-05-11T09:42:13.835Z,17.92
2023-05-11T09:44:41.690Z,17.96
2023-05-11T09:47:16.635Z,17.95
2023-05-11T09:49:44.448Z,17.99
2023-05-11T09:52:18.820Z,18.00
2023-05-11T09:54:51.363Z,18.03
2023-05-11T09:57:31.248Z,18.05
2023-05-11T09:59:59.389Z,18.07
2023-05-11T10:02:30.986Z,18.08
2023-05-11T10:04:59.551Z,18.09
2023-05-11T10:07:34.542Z,18.08
2023-05-11T10:10:02.624Z,18.14
2023-05-11T10:12:33.361Z,18.17
2023-05-11T10:15:07.208Z,18.19
2023-05-11T10:17:35.172Z,18.25
2023-05-11T10:20:04.001Z,18.30
2023-05-11T10:22:31.265Z,18.33
2023-05-11T10:24:58.841Z,18.40
2023-05-11T10:27:26.271Z,18.44
2023-05-11T10:29:52.823Z,18.48
2023-05-11T10:32:20.332Z,18.48
2023-05-11T10:34:48.448Z,18.49
2023-05-11T10:37:16.143Z,18.52
2023-05-11T10:39:44.395Z,18.55
2023-05-11T10:42:16.805Z,18.58
2023-05-11T10:45:05.168Z,18.64
2023-05-11T10:48:15.175Z,18.67
2023-05-11T10:51:15.582Z,18.73
2023-05-11T10:54:03.944Z,18.80
2023-05-11T10:57:07.488Z,18.81
2023-05-11T11:00:31.065Z,18.86
2023-05-11T11:02:58.922Z,18.94
2023-05-11T11:05:36.313Z,18.91
2023-05-11T11:08:07.219Z,18.93
2023-05-11T11:10:34.831Z,18.89
2023-05-11T11:13:11.665Z,18.83
2023-05-11T11:15:53.415Z,18.80
2023-05-11T11:18:23.768Z,18.85
2023-05-11T11:20:52.793Z,18.88
2023-05-11T11:23:52.084Z,18.89
2023-05-11T11:26:50.440Z,18.97
2023-05-11T11:29:17.192Z,19.11
2023-05-11T11:31:43.698Z,19.20
2023-05-11T11:34:25.173Z,19.23
2023-05-11T11:37:03.876Z,19.33
2023-05-11T11:39:42.642Z,19.38
2023-05-11T11:42:09.854Z,19.47
2023-05-11T11:44:39.873Z,19.48
2023-05-11T11:47:17.241Z,19.42
2023-05-11T11:49:46.461Z,19.40
2023-05-11T11:52:14.598Z,19.38
2023-05-11T11:54:43.656Z,19.36
2023-05-11T11:57:34.766Z,19.35
2023-05-11T12:00:10.764Z,19.43
2023-05-11T12:02:42.377Z,19.50
2023-05-11T12:05:09.130Z,19.56
2023-05-11T12:07:40.244Z,19.59
2023-05-11T12:10:07.149Z,19.65
2023-05-11T12:12:35.209Z,19.67
2023-05-11T12:15:03.526Z,19.69
2023-05-11T12:17:30.120Z,19.68
2023-05-11T12:20:12.838Z,19.61
2023-05-11T12:22:39.462Z,19.65
2023-05-11T12:25:06.924Z,19.65
2023-05-11T12:27:34.261Z,19.65
2023-05-11T12:30:01.181Z,19.64
2023-05-11T12:32:31.709Z,19.66
2023-05-11T12:35:04.101Z,19.72
2023-05-11T12:37:31.592Z,19.79
2023-05-11T12:39:59.511Z,19.89
2023-05-11T12:42:26.697Z,20.01
2023-05-11T12:44:54.479Z,20.15
2023-05-11T12:47:21.102Z,20.30
2023-05-11T12:49:47.719Z,20.46
2023-05-11T12:52:14.330Z,20.60
2023-05-11T12:54:48.009Z,20.75
2023-05-11T12:57:27.833Z,20.88
2023-05-11T13:00:08.047Z,21.03
2023-05-11T13:02:34.982Z,21.14
2023-05-11T13:05:13.848Z,21.10
2023-05-11T13:07:40.558Z,21.09
2023-05-11T13:10:07.523Z,21.03
2023-05-11T13:12:34.433Z,20.94
2023-05-11T13:15:07.800Z,20.85
2023-05-11T13:17:39.053Z,20.78
2023-05-11T13:20:19.553Z,20.65
2023-05-11T13:22:47.702Z,20.62
2023-05-11T13:25:16.362Z,20.53
2023-05-11T13:27:43.301Z,20.45
2023-05-11T13:30:11.265Z,20.36
2023-05-11T13:32:39.069Z,20.28
2023-05-11T13:35:07.003Z,20.20
2023-05-11T13:37:33.432Z,20.12
2023-05-11T13:39:59.941Z,20.06
2023-05-11T13:42:26.725Z,20.02
2023-05-11T13:44:53.266Z,19.98
2023-05-11T13:47:19.754Z,19.94
2023-05-11T13:49:46.243Z,19.88
2023-05-11T13:52:12.728Z,19.82
2023-05-11T13:54:39.255Z,19.76
2023-05-11T13:57:06.544Z,19.71
2023-05-11T13:59:33.066Z,19.69
2023-05-11T14:01:59.653Z,19.65
2023-05-11T14:04:26.270Z,19.64
2023-05-11T14:06:53.456Z,19.62
2023-05-11T14:09:20.478Z,19.60
2023-05-11T14:11:47.029Z,19.57
2023-05-11T14:14:14.044Z,19.52
2023-05-11T14:16:40.825Z,19.48
2023-05-11T14:19:08.527Z,19.45
2023-05-11T14:21:35.513Z,19.43
2023-05-11T14:24:11.361Z,19.41
2023-05-11T14:26:39.020Z,19.40
2023-05-11T14:29:05.457Z,19.39
2023-05-11T14:31:32.799Z,19.39
2023-05-11T14:33:59.700Z,19.37
2023-05-11T14:36:26.253Z,19.35
2023-05-11T14:38:52.853Z,19.32
2023-05-11T14:41:19.753Z,19.29
2023-05-11T14:43:46.429Z,19.27
2023-05-11T14:46:13.400Z,19.24
2023-05-11T14:48:40.006Z,19.22
2023-05-11T14:51:06.622Z,19.21
2023-05-11T14:53:33.173Z,19.19
2023-05-11T14:56:00.654Z,19.17
2023-05-11T14:58:27.231Z,19.15
2023-05-11T15:00:53.738Z,19.14
2023-05-11T15:03:20.344Z,19.12
2023-05-11T15:05:47.059Z,19.10
2023-05-11T15:08:28.402Z,19.08
2023-05-11T15:10:56.730Z,19.08
2023-05-11T15:13:24.047Z,19.07
2023-05-11T15:15:51.449Z,19.07
2023-05-11T15:18:18.506Z,19.09
2023-05-11T15:20:45.983Z,19.11
2023-05-11T15:23:16.760Z,19.12
2023-05-11T15:25:44.533Z,19.13
2023-05-11T15:28:14.152Z,19.14
2023-05-11T15:30:42.053Z,19.15
2023-05-11T15:33:10.101Z,19.16
2023-05-11T15:35:37.287Z,19.16
2023-05-11T15:38:04.370Z,19.15
2023-05-11T15:40:30.926Z,19.14
2023-05-11T15:42:58.785Z,19.12
2023-05-11T15:45:26.181Z,19.10
2023-05-11T15:47:53.961Z,19.11
2023-05-11T15:50:20.951Z,19.07
2023-05-11T15:52:47.949Z,19.06
2023-05-11T15:55:14.461Z,19.04
2023-05-11T15:57:40.984Z,19.05
2023-05-11T16:00:10.587Z,19.05
2023-05-11T16:02:37.292Z,19.06
2023-05-11T16:05:04.098Z,19.05
2023-05-11T16:07:30.659Z,19.06
2023-05-11T16:09:57.164Z,19.04
2023-05-11T16:12:23.621Z,19.04
2023-05-11T16:14:50.253Z,19.05
2023-05-11T16:17:16.753Z,19.04
2023-05-11T16:19:43.685Z,19.04
2023-05-11T16:22:10.246Z,19.04
2023-05-11T16:24:36.853Z,19.02
2023-05-11T16:27:03.962Z,19.02
2023-05-11T16:29:30.546Z,19.01
2023-05-11T16:31:57.183Z,19.01
2023-05-11T16:34:23.877Z,19.00
2023-05-11T16:36:50.471Z,18.99
2023-05-11T16:39:16.979Z,18.98
2023-05-11T16:41:43.530Z,18.96
2023-05-11T16:44:10.179Z,18.95
2023-05-11T16:46:36.826Z,18.93
2023-05-11T16:49:03.464Z,18.94
2023-05-11T16:51:30.065Z,18.92
2023-05-11T16:53:57.266Z,18.92
2023-05-11T16:56:23.958Z,18.89
2023-05-11T16:58:50.602Z,18.87
2023-05-11T17:01:17.305Z,18.84
2023-05-11T17:03:44.096Z,18.81
2023-05-11T17:06:13.686Z,18.78
2023-05-11T17:08:40.660Z,18.73
2023-05-11T17:11:07.533Z,18.70
2023-05-11T17:13:34.283Z,18.67
2023-05-11T17:16:00.996Z,18.62
2023-05-11T17:18:27.689Z,18.58
2023-05-11T17:20:56.072Z,18.54
2023-05-11T17:23:25.152Z,18.51
2023-05-11T17:25:52.141Z,18.47
2023-05-11T17:28:18.821Z,18.41
2023-05-11T17:30:48.469Z,18.36
2023-05-11T17:33:16.026Z,18.34
2023-05-11T17:35:43.032Z,18.31
2023-05-11T17:38:09.593Z,18.28
2023-05-11T17:40:36.124Z,18.25
2023-05-11T17:43:02.760Z,18.22
2023-05-11T17:45:29.364Z,18.20
2023-05-11T17:47:56.105Z,18.18
2023-05-11T17:50:23.461Z,18.16
2023-05-11T17:52:51.232Z,18.12
2023-05-11T17:55:18.520Z,18.09
2023-05-11T17:57:45.311Z,18.06
2023-05-11T18:00:12.604Z,18.04
2023-05-11T18:02:39.289Z,18.01
2023-05-11T18:05:06.986Z,17.97
2023-05-11T18:07:33.824Z,17.94
2023-05-11T18:10:00.435Z,17.92
2023-05-11T18:12:27.083Z,17.89
2023-05-11T18:14:53.666Z,17.87
2023-05-11T18:17:20.282Z,17.84
2023-05-11T18:19:46.820Z,17.80
2023-05-11T18:22:13.416Z,17.77
2023-05-11T18:24:39.849Z,17.72
2023-05-11T18:27:06.353Z,17.67
2023-05-11T18:29:33.011Z,17.65
2023-05-11T18:31:59.745Z,17.61
2023-05-11T18:34:26.404Z,17.58
2023-05-11T18:36:52.975Z,17.57
2023-05-11T18:39:19.715Z,17.55
2023-05-11T18:41:46.241Z,17.55
2023-05-11T18:44:15.152Z,17.54
2023-05-11T18:46:42.003Z,17.52
2023-05-11T18:49:08.982Z,17.52
2023-05-11T18:51:35.486Z,17.49
2023-05-11T18:54:02.259Z,17.47
2023-05-11T18:56:29.805Z,17.44
2023-05-11T18:58:56.344Z,17.42
2023-05-11T19:01:26.087Z,17.38
2023-05-11T19:03:56.899Z,17.33
2023-05-11T19:06:23.508Z,17.30
2023-05-11T19:08:50.975Z,17.28
2023-05-11T19:11:17.750Z,17.24
2023-05-11T19:13:44.356Z,17.22
2023-05-11T19:16:10.854Z,17.21
2023-05-11T19:18:39.944Z,17.18
2023-05-11T19:21:06.900Z,17.15
2023-05-11T19:23:33.688Z,17.15
2023-05-11T19:26:00.563Z,17.13
2023-05-11T19:28:27.177Z,17.10
2023-05-11T19:31:04.760Z,17.04
2023-05-11T19:33:31.755Z,17.05
2023-05-11T19:35:58.431Z,17.02
2023-05-11T19:38:25.003Z,17.00
2023-05-11T19:40:52.243Z,16.98
2023-05-11T19:43:19.203Z,16.97
2023-05-11T19:45:45.988Z,16.96
2023-05-11T19:48:13.702Z,16.96
2023-05-11T19:50:41.109Z,16.93
2023-05-11T19:53:07.865Z,16.92
2023-05-11T19:55:34.477Z,16.90
2023-05-11T19:58:01.257Z,16.89
2023-05-11T20:00:27.848Z,16.89
2023-05-11T20:02:55.226Z,16.88
2023-05-11T20:05:21.905Z,16.89
2023-05-11T20:07:48.449Z,16.88
2023-05-11T20:10:14.919Z,16.88
2023-05-11T20:12:41.474Z,16.89
2023-05-11T20:15:08.692Z,16.88
2023-05-11T20:17:36.162Z,16.88
2023-05-11T20:20:03.552Z,16.87
2023-05-11T20:22:31.360Z,16.85
2023-05-11T20:24:57.908Z,16.85
2023-05-11T20:27:24.489Z,16.84
2023-05-11T20:29:51.052Z,16.83
2023-05-11T20:32:18.368Z,16.83
2023-05-11T20:34:44.879Z,16.82
2023-05-11T20:37:11.535Z,16.80
2023-05-11T20:39:39.120Z,16.78
2023-05-11T20:42:05.808Z,16.78
2023-05-11T20:44:32.367Z,16.77
2023-05-11T20:46:58.875Z,16.77
2023-05-11T20:49:37.532Z,16.75
2023-05-11T20:52:05.914Z,16.75
2023-05-11T20:54:34.738Z,16.72
2023-05-11T20:57:04.763Z,16.72
2023-05-11T21:02:02.216Z,16.70
2023-05-11T21:04:31.090Z,16.69
2023-05-11T21:06:57.615Z,16.68
2023-05-11T21:09:25.202Z,16.68
2023-05-11T21:11:51.591Z,16.68
2023-05-11T21:14:18.051Z,16.68
2023-05-11T21:16:44.521Z,16.68
2023-05-11T21:19:11.941Z,16.70
2023-05-11T21:21:38.481Z,16.70
2023-05-11T21:24:06.164Z,16.69
2023-05-11T21:26:32.843Z,16.68
2023-05-11T21:28:59.403Z,16.68
2023-05-11T21:31:26.141Z,16.67
2023-05-11T21:33:52.701Z,16.67
2023-05-11T21:36:19.645Z,16.65
2023-05-11T21:38:46.103Z,16.63
2023-05-11T21:41:12.715Z,16.63
2023-05-11T21:43:39.257Z,16.61
2023-05-11T21:46:06.197Z,16.60
2023-05-11T21:48:32.738Z,16.60
2023-05-11T21:50:59.186Z,16.58
2023-05-11T21:53:25.872Z,16.57
2023-05-11T21:55:52.314Z,16.56
2023-05-11T21:58:19.090Z,16.56
2023-05-11T22:00:46.362Z,16.54
2023-05-11T22:03:13.325Z,16.54
2023-05-11T22:05:39.992Z,16.53
2023-05-11T22:08:14.832Z,16.53
2023-05-11T22:10:43.146Z,16.52
2023-05-11T22:13:09.794Z,16.51
2023-05-11T22:15:36.452Z,16.51
2023-05-11T22:18:03.568Z,16.49
2023-05-11T22:20:31.711Z,16.47
2023-05-11T22:22:58.368Z,16.48
2023-05-11T22:25:24.823Z,16.46
2023-05-11T22:27:51.308Z,16.45
2023-05-11T22:30:18.253Z,16.43
2023-05-11T22:32:44.992Z,16.41
2023-05-11T22:35:11.744Z,16.41
2023-05-11T22:37:38.293Z,16.41
2023-05-11T22:40:05.340Z,16.41
2023-05-11T22:42:32.799Z,16.41
2023-05-11T22:44:59.380Z,16.41
2023-05-11T22:47:26.127Z,16.41
2023-05-11T22:49:52.739Z,16.41
2023-05-11T22:52:19.335Z,16.41
2023-05-11T22:54:46.360Z,16.41
2023-05-11T22:57:16.070Z,16.41
2023-05-11T22:59:42.589Z,16.41
2023-05-11T23:02:09.032Z,16.42
2023-05-11T23:04:35.572Z,16.41
2023-05-11T23:07:02.207Z,16.42
2023-05-11T23:09:29.004Z,16.44
2023-05-11T23:11:55.622Z,16.45
2023-05-11T23:14:22.616Z,16.45
2023-05-11T23:16:49.469Z,16.46
2023-05-11T23:19:16.118Z,16.46
2023-05-11T23:21:42.789Z,16.46
2023-05-11T23:24:09.326Z,16.45
2023-05-11T23:26:36.976Z,16.45
2023-05-11T23:29:03.779Z,16.44
2023-05-11T23:31:32.189Z,16.44
2023-05-11T23:33:59.376Z,16.45
2023-05-11T23:36:26.350Z,16.44
2023-05-11T23:38:53.641Z,16.44
2023-05-11T23:41:20.221Z,16.46
2023-05-11T23:43:46.781Z,16.46
2023-05-11T23:46:13.347Z,16.46
2023-05-11T23:48:40.438Z,16.46
2023-05-11T23:51:07.074Z,16.47
2023-05-11T23:53:33.818Z,16.47
2023-05-11T23:56:00.354Z,16.48
2023-05-11T23:58:26.873Z,16.48
